sensor_id;sensor_type;location;lat;lon;timestamp;temperature;humidity
38090;DHT22;23904;52.322;10.232;2023-11-19T00:00:36;6.50;99.90
38090;DHT22;23904;52.322;10.232;2023-11-19T00:03:02;6.50;99.90
38090;DHT22;23904;52.322;10.232;2023-11-19T00:05:28;6.50;99.90
38090;DHT22;23904;52.322;10.232;2023-11-19T00:07:54;6.60;99.90
38090;DHT22;23904;52.322;10.232;2023-11-19T00:10:20;6.60;99.90
38090;DHT22;23904;52.322;10.232;2023-11-19T00:12:48;6.50;99.90
38090;DHT22;23904;52.322;10.232;2023-11-19T00:15:17;6.60;99.90
38090;DHT22;23904;52.322;10.232;2023-11-19T00:17:47;6.60;99.90
38090;DHT22;23904;52.322;10.232;2023-11-19T00:20:14;6.70;99.90
38090;DHT22;23904;52.322;10.232;2023-11-19T00:22:41;6.70;99.90
38090;DHT22;23904;52.322;10.232;2023-11-19T00:25:10;6.70;99.90
38090;DHT22;23904;52.322;10.232;2023-11-19T00:27:36;6.70;99.90
38090;DHT22;23904;52.322;10.232;2023-11-19T00:30:06;6.70;99.90
38090;DHT22;23904;52.322;10.232;2023-11-19T00:32:32;6.80;99.90
38090;DHT22;23904;52.322;10.232;2023-11-19T00:34:58;6.80;99.90
38090;DHT22;23904;52.322;10.232;2023-11-19T00:37:24;6.80;99.90
38090;DHT22;23904;52.322;10.232;2023-11-19T00:39:49;6.90;99.90
38090;DHT22;23904;52.322;10.232;2023-11-19T00:42:15;6.90;99.90
38090;DHT22;23904;52.322;10.232;2023-11-19T00:44:42;6.90;99.90
38090;DHT22;23904;52.322;10.232;2023-11-19T00:47:07;6.90;99.90
38090;DHT22;23904;52.322;10.232;2023-11-19T00:49:33;7.00;99.90
38090;DHT22;23904;52.322;10.232;2023-11-19T00:51:59;7.00;99.90
38090;DHT22;23904;52.322;10.232;2023-11-19T00:54:25;7.00;99.90
38090;DHT22;23904;52.322;10.232;2023-11-19T00:56:54;7.00;99.90
38090;DHT22;23904;52.322;10.232;2023-11-19T00:59:20;7.00;99.90
38090;DHT22;23904;52.322;10.232;2023-11-19T01:01:46;7.00;99.90
38090;DHT22;23904;52.322;10.232;2023-11-19T01:04:14;7.00;99.90
38090;DHT22;23904;52.322;10.232;2023-11-19T01:06:40;7.00;99.90
38090;DHT22;23904;52.322;10.232;2023-11-19T01:09:08;7.00;99.90
38090;DHT22;23904;52.322;10.232;2023-11-19T01:11:34;7.00;99.90
38090;DHT22;23904;52.322;10.232;2023-11-19T01:14:00;7.00;99.90
38090;DHT22;23904;52.322;10.232;2023-11-19T01:16:26;7.00;99.90
38090;DHT22;23904;52.322;10.232;2023-11-19T01:18:52;7.00;99.90
38090;DHT22;23904;52.322;10.232;2023-11-19T01:21:18;7.10;99.90
38090;DHT22;23904;52.322;10.232;2023-11-19T01:23:44;7.00;99.90
38090;DHT22;23904;52.322;10.232;2023-11-19T01:26:10;7.10;99.90
38090;DHT22;23904;52.322;10.232;2023-11-19T01:28:36;7.10;99.90
38090;DHT22;23904;52.322;10.232;2023-11-19T01:31:05;7.10;99.90
38090;DHT22;23904;52.322;10.232;2023-11-19T01:33:31;7.10;99.90
38090;DHT22;23904;52.322;10.232;2023-11-19T01:35:57;7.10;99.90
38090;DHT22;23904;52.322;10.232;2023-11-19T01:38:24;7.10;99.90
38090;DHT22;23904;52.322;10.232;2023-11-19T01:40:50;7.10;99.90
38090;DHT22;23904;52.322;10.232;2023-11-19T01:43:36;7.10;99.90
38090;DHT22;23904;52.322;10.232;2023-11-19T01:46:05;7.20;99.90
38090;DHT22;23904;52.322;10.232;2023-11-19T01:48:34;7.20;99.90
38090;DHT22;23904;52.322;10.232;2023-11-19T01:51:01;7.20;99.90
38090;DHT22;23904;52.322;10.232;2023-11-19T01:53:29;7.20;99.90
38090;DHT22;23904;52.322;10.232;2023-11-19T01:55:56;7.20;99.90
38090;DHT22;23904;52.322;10.232;2023-11-19T01:58:22;7.30;99.90
38090;DHT22;23904;52.322;10.232;2023-11-19T02:00:48;7.30;99.90
38090;DHT22;23904;52.322;10.232;2023-11-19T02:03:14;7.30;99.90
38090;DHT22;23904;52.322;10.232;2023-11-19T02:05:41;7.30;99.90
38090;DHT22;23904;52.322;10.232;2023-11-19T02:08:07;7.40;99.90
38090;DHT22;23904;52.322;10.232;2023-11-19T02:10:33;7.50;99.90
38090;DHT22;23904;52.322;10.232;2023-11-19T02:12:59;7.50;99.90
38090;DHT22;23904;52.322;10.232;2023-11-19T02:15:24;7.50;99.90
38090;DHT22;23904;52.322;10.232;2023-11-19T02:17:51;7.50;99.90
38090;DHT22;23904;52.322;10.232;2023-11-19T02:20:17;7.50;99.90
38090;DHT22;23904;52.322;10.232;2023-11-19T02:22:46;7.50;99.90
38090;DHT22;23904;52.322;10.232;2023-11-19T02:25:19;7.50;99.90
38090;DHT22;23904;52.322;10.232;2023-11-19T02:27:53;7.60;99.90
38090;DHT22;23904;52.322;10.232;2023-11-19T02:30:23;7.70;99.90
38090;DHT22;23904;52.322;10.232;2023-11-19T02:32:55;7.70;99.90
38090;DHT22;23904;52.322;10.232;2023-11-19T02:35:25;7.80;99.90
38090;DHT22;23904;52.322;10.232;2023-11-19T02:37:52;7.80;99.90
38090;DHT22;23904;52.322;10.232;2023-11-19T02:40:20;7.80;99.90
38090;DHT22;23904;52.322;10.232;2023-11-19T02:42:49;7.80;99.90
38090;DHT22;23904;52.322;10.232;2023-11-19T02:45:15;7.80;99.90
38090;DHT22;23904;52.322;10.232;2023-11-19T02:47:41;7.80;99.90
38090;DHT22;23904;52.322;10.232;2023-11-19T02:50:11;7.90;99.90
38090;DHT22;23904;52.322;10.232;2023-11-19T02:52:44;7.80;99.90
38090;DHT22;23904;52.322;10.232;2023-11-19T02:55:11;7.90;99.90
38090;DHT22;23904;52.322;10.232;2023-11-19T02:57:43;7.80;99.90
38090;DHT22;23904;52.322;10.232;2023-11-19T03:00:21;7.90;99.90
38090;DHT22;23904;52.322;10.232;2023-11-19T03:02:57;7.90;99.90
38090;DHT22;23904;52.322;10.232;2023-11-19T03:05:35;7.90;99.90
38090;DHT22;23904;52.322;10.232;2023-11-19T03:08:00;7.90;99.90
38090;DHT22;23904;52.322;10.232;2023-11-19T03:10:26;7.90;99.90
38090;DHT22;23904;52.322;10.232;2023-11-19T03:12:55;7.90;99.90
38090;DHT22;23904;52.322;10.232;2023-11-19T03:15:22;7.90;99.90
38090;DHT22;23904;52.322;10.232;2023-11-19T03:17:48;7.90;99.90
38090;DHT22;23904;52.322;10.232;2023-11-19T03:20:14;7.90;99.90
38090;DHT22;23904;52.322;10.232;2023-11-19T03:22:43;7.90;99.90
38090;DHT22;23904;52.322;10.232;2023-11-19T03:25:09;7.90;99.90
38090;DHT22;23904;52.322;10.232;2023-11-19T03:27:37;7.90;99.90
38090;DHT22;23904;52.322;10.232;2023-11-19T03:30:05;8.00;99.90
38090;DHT22;23904;52.322;10.232;2023-11-19T03:32:32;8.00;99.90
38090;DHT22;23904;52.322;10.232;2023-11-19T03:34:58;8.00;99.90
38090;DHT22;23904;52.322;10.232;2023-11-19T03:37:25;8.10;99.90
38090;DHT22;23904;52.322;10.232;2023-11-19T03:39:53;8.10;99.90
38090;DHT22;23904;52.322;10.232;2023-11-19T03:42:19;8.10;99.90
38090;DHT22;23904;52.322;10.232;2023-11-19T03:44:46;8.20;99.90
38090;DHT22;23904;52.322;10.232;2023-11-19T03:47:11;8.20;99.90
38090;DHT22;23904;52.322;10.232;2023-11-19T03:49:37;8.30;99.90
38090;DHT22;23904;52.322;10.232;2023-11-19T03:52:03;8.30;99.90
38090;DHT22;23904;52.322;10.232;2023-11-19T03:54:29;8.30;99.90
38090;DHT22;23904;52.322;10.232;2023-11-19T03:56:54;8.30;99.90
38090;DHT22;23904;52.322;10.232;2023-11-19T03:59:20;8.40;99.90
38090;DHT22;23904;52.322;10.232;2023-11-19T04:01:46;8.40;99.90
38090;DHT22;23904;52.322;10.232;2023-11-19T04:04:11;8.40;99.90
38090;DHT22;23904;52.322;10.232;2023-11-19T04:06:37;8.40;99.90
38090;DHT22;23904;52.322;10.232;2023-11-19T04:09:03;8.40;99.90
38090;DHT22;23904;52.322;10.232;2023-11-19T04:11:28;8.40;99.90
38090;DHT22;23904;52.322;10.232;2023-11-19T04:13:54;8.30;99.90
38090;DHT22;23904;52.322;10.232;2023-11-19T04:16:26;8.30;99.90
38090;DHT22;23904;52.322;10.232;2023-11-19T04:18:53;8.30;99.90
38090;DHT22;23904;52.322;10.232;2023-11-19T04:21:19;8.40;99.90
38090;DHT22;23904;52.322;10.232;2023-11-19T04:23:44;8.40;99.90
38090;DHT22;23904;52.322;10.232;2023-11-19T04:26:10;8.40;99.90
38090;DHT22;23904;52.322;10.232;2023-11-19T04:28:35;8.40;99.90
38090;DHT22;23904;52.322;10.232;2023-11-19T04:31:01;8.40;99.90
38090;DHT22;23904;52.322;10.232;2023-11-19T04:33:28;8.50;99.90
38090;DHT22;23904;52.322;10.232;2023-11-19T04:35:54;8.50;99.90
38090;DHT22;23904;52.322;10.232;2023-11-19T04:38:19;8.60;99.90
38090;DHT22;23904;52.322;10.232;2023-11-19T04:40:45;8.60;99.90
38090;DHT22;23904;52.322;10.232;2023-11-19T04:43:10;8.70;99.90
38090;DHT22;23904;52.322;10.232;2023-11-19T04:45:36;8.70;99.90
38090;DHT22;23904;52.322;10.232;2023-11-19T04:48:02;8.70;99.90
38090;DHT22;23904;52.322;10.232;2023-11-19T04:50:27;8.70;99.90
38090;DHT22;23904;52.322;10.232;2023-11-19T04:52:53;8.80;99.90
38090;DHT22;23904;52.322;10.232;2023-11-19T04:55:19;8.80;99.90
38090;DHT22;23904;52.322;10.232;2023-11-19T04:57:44;8.80;99.90
38090;DHT22;23904;52.322;10.232;2023-11-19T05:00:11;8.80;99.90
38090;DHT22;23904;52.322;10.232;2023-11-19T05:02:37;8.90;99.90
38090;DHT22;23904;52.322;10.232;2023-11-19T05:05:03;8.90;99.90
38090;DHT22;23904;52.322;10.232;2023-11-19T05:07:30;8.90;99.90
38090;DHT22;23904;52.322;10.232;2023-11-19T05:09:56;8.90;99.90
38090;DHT22;23904;52.322;10.232;2023-11-19T05:12:21;8.90;99.90
38090;DHT22;23904;52.322;10.232;2023-11-19T05:14:48;9.00;99.90
38090;DHT22;23904;52.322;10.232;2023-11-19T05:17:17;9.00;99.90
38090;DHT22;23904;52.322;10.232;2023-11-19T05:19:43;9.10;99.90
38090;DHT22;23904;52.322;10.232;2023-11-19T05:22:09;9.10;99.90
38090;DHT22;23904;52.322;10.232;2023-11-19T05:24:35;9.10;99.90
38090;DHT22;23904;52.322;10.232;2023-11-19T05:27:01;9.20;99.90
38090;DHT22;23904;52.322;10.232;2023-11-19T05:29:27;9.10;99.90
38090;DHT22;23904;52.322;10.232;2023-11-19T05:31:53;9.20;99.90
38090;DHT22;23904;52.322;10.232;2023-11-19T05:34:20;9.20;99.90
38090;DHT22;23904;52.322;10.232;2023-11-19T05:36:46;9.20;99.90
38090;DHT22;23904;52.322;10.232;2023-11-19T05:39:12;9.20;99.90
38090;DHT22;23904;52.322;10.232;2023-11-19T05:41:37;9.20;99.90
38090;DHT22;23904;52.322;10.232;2023-11-19T05:44:03;9.20;99.90
38090;DHT22;23904;52.322;10.232;2023-11-19T05:46:28;9.10;99.90
38090;DHT22;23904;52.322;10.232;2023-11-19T05:48:54;9.20;99.90
38090;DHT22;23904;52.322;10.232;2023-11-19T05:51:20;9.10;99.90
38090;DHT22;23904;52.322;10.232;2023-11-19T05:53:45;9.10;99.90
38090;DHT22;23904;52.322;10.232;2023-11-19T05:56:11;9.10;99.90
38090;DHT22;23904;52.322;10.232;2023-11-19T05:58:37;9.10;99.90
38090;DHT22;23904;52.322;10.232;2023-11-19T06:01:05;9.10;99.90
38090;DHT22;23904;52.322;10.232;2023-11-19T06:03:32;9.20;99.90
38090;DHT22;23904;52.322;10.232;2023-11-19T06:05:58;9.30;99.90
38090;DHT22;23904;52.322;10.232;2023-11-19T06:08:24;9.30;99.90
38090;DHT22;23904;52.322;10.232;2023-11-19T06:10:52;9.40;99.90
38090;DHT22;23904;52.322;10.232;2023-11-19T06:13:18;9.40;99.90
38090;DHT22;23904;52.322;10.232;2023-11-19T06:15:44;9.40;99.90
38090;DHT22;23904;52.322;10.232;2023-11-19T06:18:10;9.40;99.90
38090;DHT22;23904;52.322;10.232;2023-11-19T06:20:37;9.50;99.90
38090;DHT22;23904;52.322;10.232;2023-11-19T06:23:03;9.50;99.90
38090;DHT22;23904;52.322;10.232;2023-11-19T06:25:29;9.40;99.90
38090;DHT22;23904;52.322;10.232;2023-11-19T06:27:54;9.50;99.90
38090;DHT22;23904;52.322;10.232;2023-11-19T06:30:20;9.50;99.90
38090;DHT22;23904;52.322;10.232;2023-11-19T06:32:48;9.60;99.90
38090;DHT22;23904;52.322;10.232;2023-11-19T06:35:14;9.60;99.90
38090;DHT22;23904;52.322;10.232;2023-11-19T06:37:40;9.60;99.90
38090;DHT22;23904;52.322;10.232;2023-11-19T06:40:07;9.60;99.90
38090;DHT22;23904;52.322;10.232;2023-11-19T06:42:34;9.70;99.90
38090;DHT22;23904;52.322;10.232;2023-11-19T06:45:01;9.70;99.90
38090;DHT22;23904;52.322;10.232;2023-11-19T06:47:27;9.70;99.90
38090;DHT22;23904;52.322;10.232;2023-11-19T06:49:54;9.70;99.90
38090;DHT22;23904;52.322;10.232;2023-11-19T06:52:20;9.80;99.90
38090;DHT22;23904;52.322;10.232;2023-11-19T06:54:46;9.80;99.90
38090;DHT22;23904;52.322;10.232;2023-11-19T06:57:12;9.90;99.90
38090;DHT22;23904;52.322;10.232;2023-11-19T06:59:38;10.00;99.90
38090;DHT22;23904;52.322;10.232;2023-11-19T07:02:04;10.00;99.90
38090;DHT22;23904;52.322;10.232;2023-11-19T07:04:31;10.20;99.90
38090;DHT22;23904;52.322;10.232;2023-11-19T07:06:57;10.30;99.90
38090;DHT22;23904;52.322;10.232;2023-11-19T07:09:22;10.40;99.90
38090;DHT22;23904;52.322;10.232;2023-11-19T07:11:48;10.40;99.90
38090;DHT22;23904;52.322;10.232;2023-11-19T07:14:15;10.30;99.90
38090;DHT22;23904;52.322;10.232;2023-11-19T07:16:41;10.40;99.90
38090;DHT22;23904;52.322;10.232;2023-11-19T07:19:08;10.40;99.90
38090;DHT22;23904;52.322;10.232;2023-11-19T07:21:33;10.50;99.90
38090;DHT22;23904;52.322;10.232;2023-11-19T07:23:59;10.50;99.90
38090;DHT22;23904;52.322;10.232;2023-11-19T07:26:25;10.50;99.90
38090;DHT22;23904;52.322;10.232;2023-11-19T07:28:52;10.50;99.90
38090;DHT22;23904;52.322;10.232;2023-11-19T07:31:17;10.60;99.90
38090;DHT22;23904;52.322;10.232;2023-11-19T07:33:45;10.70;99.90
38090;DHT22;23904;52.322;10.232;2023-11-19T07:36:12;10.60;99.90
38090;DHT22;23904;52.322;10.232;2023-11-19T07:38:38;10.60;99.90
38090;DHT22;23904;52.322;10.232;2023-11-19T07:41:07;10.60;99.90
38090;DHT22;23904;52.322;10.232;2023-11-19T07:43:35;10.70;99.90
38090;DHT22;23904;52.322;10.232;2023-11-19T07:46:01;10.80;99.90
38090;DHT22;23904;52.322;10.232;2023-11-19T07:48:27;10.80;99.90
38090;DHT22;23904;52.322;10.232;2023-11-19T07:50:53;10.70;99.90
38090;DHT22;23904;52.322;10.232;2023-11-19T07:53:19;10.70;99.90
38090;DHT22;23904;52.322;10.232;2023-11-19T07:55:45;10.80;99.90
38090;DHT22;23904;52.322;10.232;2023-11-19T07:58:11;10.90;99.90
38090;DHT22;23904;52.322;10.232;2023-11-19T08:00:38;10.90;99.90
38090;DHT22;23904;52.322;10.232;2023-11-19T08:03:05;10.90;99.90
38090;DHT22;23904;52.322;10.232;2023-11-19T08:05:31;10.90;99.90
38090;DHT22;23904;52.322;10.232;2023-11-19T08:07:57;11.00;99.90
38090;DHT22;23904;52.322;10.232;2023-11-19T08:10:23;11.00;99.90
38090;DHT22;23904;52.322;10.232;2023-11-19T08:12:49;11.00;99.90
38090;DHT22;23904;52.322;10.232;2023-11-19T08:15:15;11.10;99.90
38090;DHT22;23904;52.322;10.232;2023-11-19T08:17:41;11.10;99.90
38090;DHT22;23904;52.322;10.232;2023-11-19T08:20:08;11.20;99.90
38090;DHT22;23904;52.322;10.232;2023-11-19T08:22:37;11.30;99.90
38090;DHT22;23904;52.322;10.232;2023-11-19T08:25:07;11.40;99.90
38090;DHT22;23904;52.322;10.232;2023-11-19T08:27:33;11.50;99.90
38090;DHT22;23904;52.322;10.232;2023-11-19T08:29:59;11.50;99.90
38090;DHT22;23904;52.322;10.232;2023-11-19T08:32:25;11.50;99.90
38090;DHT22;23904;52.322;10.232;2023-11-19T08:34:52;11.50;99.90
38090;DHT22;23904;52.322;10.232;2023-11-19T08:37:18;11.60;99.90
38090;DHT22;23904;52.322;10.232;2023-11-19T08:39:46;11.70;99.90
38090;DHT22;23904;52.322;10.232;2023-11-19T08:42:12;11.70;99.90
38090;DHT22;23904;52.322;10.232;2023-11-19T08:44:38;11.70;99.90
38090;DHT22;23904;52.322;10.232;2023-11-19T08:47:04;11.80;99.90
38090;DHT22;23904;52.322;10.232;2023-11-19T08:49:30;11.70;99.90
38090;DHT22;23904;52.322;10.232;2023-11-19T08:51:55;11.60;99.90
38090;DHT22;23904;52.322;10.232;2023-11-19T08:54:21;11.60;99.90
38090;DHT22;23904;52.322;10.232;2023-11-19T08:56:48;11.60;99.90
38090;DHT22;23904;52.322;10.232;2023-11-19T08:59:14;11.50;99.90
38090;DHT22;23904;52.322;10.232;2023-11-19T09:01:40;11.50;99.90
38090;DHT22;23904;52.322;10.232;2023-11-19T09:04:06;11.50;99.90
38090;DHT22;23904;52.322;10.232;2023-11-19T09:06:36;11.50;99.90
38090;DHT22;23904;52.322;10.232;2023-11-19T09:09:01;11.50;99.90
38090;DHT22;23904;52.322;10.232;2023-11-19T09:11:28;11.50;99.90
38090;DHT22;23904;52.322;10.232;2023-11-19T09:13:54;11.60;99.90
38090;DHT22;23904;52.322;10.232;2023-11-19T09:16:20;11.60;99.90
38090;DHT22;23904;52.322;10.232;2023-11-19T09:18:45;11.60;99.90
38090;DHT22;23904;52.322;10.232;2023-11-19T09:21:11;11.70;99.90
38090;DHT22;23904;52.322;10.232;2023-11-19T09:23:37;11.70;99.90
38090;DHT22;23904;52.322;10.232;2023-11-19T09:26:05;11.70;99.90
38090;DHT22;23904;52.322;10.232;2023-11-19T09:28:31;11.70;99.90
38090;DHT22;23904;52.322;10.232;2023-11-19T09:30:57;11.60;99.90
38090;DHT22;23904;52.322;10.232;2023-11-19T09:33:24;11.50;99.90
38090;DHT22;23904;52.322;10.232;2023-11-19T09:35:50;11.50;99.90
38090;DHT22;23904;52.322;10.232;2023-11-19T09:38:16;11.50;99.90
38090;DHT22;23904;52.322;10.232;2023-11-19T09:40:42;11.60;99.90
38090;DHT22;23904;52.322;10.232;2023-11-19T09:43:08;11.70;99.90
38090;DHT22;23904;52.322;10.232;2023-11-19T09:45:49;11.70;99.90
38090;DHT22;23904;52.322;10.232;2023-11-19T09:48:19;11.80;99.90
38090;DHT22;23904;52.322;10.232;2023-11-19T09:50:48;11.90;99.90
38090;DHT22;23904;52.322;10.232;2023-11-19T09:53:15;11.90;99.90
38090;DHT22;23904;52.322;10.232;2023-11-19T09:55:45;12.00;99.90
38090;DHT22;23904;52.322;10.232;2023-11-19T09:58:12;12.00;99.90
38090;DHT22;23904;52.322;10.232;2023-11-19T10:00:40;12.10;99.90
38090;DHT22;23904;52.322;10.232;2023-11-19T10:03:07;12.00;99.90
38090;DHT22;23904;52.322;10.232;2023-11-19T10:05:34;12.00;99.90
38090;DHT22;23904;52.322;10.232;2023-11-19T10:08:01;12.00;99.90
38090;DHT22;23904;52.322;10.232;2023-11-19T10:10:28;12.10;99.90
38090;DHT22;23904;52.322;10.232;2023-11-19T10:12:55;12.20;99.90
38090;DHT22;23904;52.322;10.232;2023-11-19T10:15:21;12.40;99.90
38090;DHT22;23904;52.322;10.232;2023-11-19T10:17:58;12.50;99.90
38090;DHT22;23904;52.322;10.232;2023-11-19T10:20:23;12.50;99.90
38090;DHT22;23904;52.322;10.232;2023-11-19T10:22:53;12.40;99.90
38090;DHT22;23904;52.322;10.232;2023-11-19T10:25:27;12.30;99.90
38090;DHT22;23904;52.322;10.232;2023-11-19T10:27:54;12.30;99.90
38090;DHT22;23904;52.322;10.232;2023-11-19T10:30:25;12.30;99.90
38090;DHT22;23904;52.322;10.232;2023-11-19T10:33:11;12.30;99.90
38090;DHT22;23904;52.322;10.232;2023-11-19T10:35:58;12.10;99.90
38090;DHT22;23904;52.322;10.232;2023-11-19T10:38:25;12.20;99.90
38090;DHT22;23904;52.322;10.232;2023-11-19T10:40:52;12.10;99.90
38090;DHT22;23904;52.322;10.232;2023-11-19T10:43:22;12.10;99.90
38090;DHT22;23904;52.322;10.232;2023-11-19T10:45:48;12.00;99.90
38090;DHT22;23904;52.322;10.232;2023-11-19T10:48:15;12.00;99.90
38090;DHT22;23904;52.322;10.232;2023-11-19T10:50:43;12.00;99.90
38090;DHT22;23904;52.322;10.232;2023-11-19T10:53:11;12.10;99.90
38090;DHT22;23904;52.322;10.232;2023-11-19T10:55:41;12.20;99.90
38090;DHT22;23904;52.322;10.232;2023-11-19T10:58:08;12.30;99.90
38090;DHT22;23904;52.322;10.232;2023-11-19T11:00:51;12.40;99.90
38090;DHT22;23904;52.322;10.232;2023-11-19T11:03:19;12.50;99.90
38090;DHT22;23904;52.322;10.232;2023-11-19T11:05:50;12.30;99.90
38090;DHT22;23904;52.322;10.232;2023-11-19T11:08:20;12.40;99.90
38090;DHT22;23904;52.322;10.232;2023-11-19T11:10:52;12.50;99.90
38090;DHT22;23904;52.322;10.232;2023-11-19T11:13:19;12.70;99.90
38090;DHT22;23904;52.322;10.232;2023-11-19T11:15:45;12.90;99.90
38090;DHT22;23904;52.322;10.232;2023-11-19T11:18:13;12.90;99.90
38090;DHT22;23904;52.322;10.232;2023-11-19T11:20:39;13.00;99.90
38090;DHT22;23904;52.322;10.232;2023-11-19T11:26:31;13.80;99.90
38090;DHT22;23904;52.322;10.232;2023-11-19T11:32:50;13.90;99.90
38090;DHT22;23904;52.322;10.232;2023-11-19T11:38:44;14.30;99.90
38090;DHT22;23904;52.322;10.232;2023-11-19T11:41:35;14.30;99.90
38090;DHT22;23904;52.322;10.232;2023-11-19T11:44:02;14.40;99.90
38090;DHT22;23904;52.322;10.232;2023-11-19T11:49:07;15.20;99.90
38090;DHT22;23904;52.322;10.232;2023-11-19T11:57:13;16.10;99.90
38090;DHT22;23904;52.322;10.232;2023-11-19T12:02:12;16.00;99.90
38090;DHT22;23904;52.322;10.232;2023-11-19T12:04:42;15.80;99.90
38090;DHT22;23904;52.322;10.232;2023-11-19T12:07:20;15.60;99.90
38090;DHT22;23904;52.322;10.232;2023-11-19T12:09:49;15.20;99.90
38090;DHT22;23904;52.322;10.232;2023-11-19T12:12:22;14.90;99.90
38090;DHT22;23904;52.322;10.232;2023-11-19T12:19:59;14.00;99.90
38090;DHT22;23904;52.322;10.232;2023-11-19T12:22:26;13.80;99.90
38090;DHT22;23904;52.322;10.232;2023-11-19T12:24:55;13.50;99.90
38090;DHT22;23904;52.322;10.232;2023-11-19T12:27:21;13.30;99.90
38090;DHT22;23904;52.322;10.232;2023-11-19T12:29:48;13.20;99.90
38090;DHT22;23904;52.322;10.232;2023-11-19T12:32:14;13.20;99.90
38090;DHT22;23904;52.322;10.232;2023-11-19T12:34:40;13.30;99.90
38090;DHT22;23904;52.322;10.232;2023-11-19T12:37:06;13.40;99.90
38090;DHT22;23904;52.322;10.232;2023-11-19T12:39:32;13.40;99.90
38090;DHT22;23904;52.322;10.232;2023-11-19T12:41:58;13.60;99.90
38090;DHT22;23904;52.322;10.232;2023-11-19T12:44:26;13.60;99.90
38090;DHT22;23904;52.322;10.232;2023-11-19T12:47:05;13.50;99.90
38090;DHT22;23904;52.322;10.232;2023-11-19T12:49:32;13.50;99.90
38090;DHT22;23904;52.322;10.232;2023-11-19T12:51:59;13.50;99.90
38090;DHT22;23904;52.322;10.232;2023-11-19T12:54:35;13.30;99.90
38090;DHT22;23904;52.322;10.232;2023-11-19T12:57:01;13.20;99.90
38090;DHT22;23904;52.322;10.232;2023-11-19T12:59:28;13.20;99.90
38090;DHT22;23904;52.322;10.232;2023-11-19T13:02:00;13.30;99.90
38090;DHT22;23904;52.322;10.232;2023-11-19T13:04:29;13.30;99.90
38090;DHT22;23904;52.322;10.232;2023-11-19T13:06:59;13.10;99.90
38090;DHT22;23904;52.322;10.232;2023-11-19T13:09:26;12.90;99.90
38090;DHT22;23904;52.322;10.232;2023-11-19T13:11:53;12.90;99.90
38090;DHT22;23904;52.322;10.232;2023-11-19T13:14:19;12.80;99.90
38090;DHT22;23904;52.322;10.232;2023-11-19T13:16:45;12.70;99.90
38090;DHT22;23904;52.322;10.232;2023-11-19T13:19:12;12.60;99.90
38090;DHT22;23904;52.322;10.232;2023-11-19T13:21:38;12.70;99.90
38090;DHT22;23904;52.322;10.232;2023-11-19T13:24:06;12.70;99.90
38090;DHT22;23904;52.322;10.232;2023-11-19T13:26:32;12.70;99.90
38090;DHT22;23904;52.322;10.232;2023-11-19T13:28:57;12.70;99.90
38090;DHT22;23904;52.322;10.232;2023-11-19T13:31:23;12.70;99.90
38090;DHT22;23904;52.322;10.232;2023-11-19T13:33:48;12.70;99.90
38090;DHT22;23904;52.322;10.232;2023-11-19T13:36:14;12.60;99.90
38090;DHT22;23904;52.322;10.232;2023-11-19T13:38:40;12.60;99.90
38090;DHT22;23904;52.322;10.232;2023-11-19T13:41:10;12.70;99.90
38090;DHT22;23904;52.322;10.232;2023-11-19T13:43:37;12.70;99.90
38090;DHT22;23904;52.322;10.232;2023-11-19T13:46:02;12.60;99.90
38090;DHT22;23904;52.322;10.232;2023-11-19T13:48:29;12.60;99.90
38090;DHT22;23904;52.322;10.232;2023-11-19T13:50:55;12.50;99.90
38090;DHT22;23904;52.322;10.232;2023-11-19T13:53:21;12.40;99.90
38090;DHT22;23904;52.322;10.232;2023-11-19T13:55:48;12.40;99.90
38090;DHT22;23904;52.322;10.232;2023-11-19T13:58:13;12.30;99.90
38090;DHT22;23904;52.322;10.232;2023-11-19T14:00:39;12.30;99.90
38090;DHT22;23904;52.322;10.232;2023-11-19T14:03:07;12.30;99.90
38090;DHT22;23904;52.322;10.232;2023-11-19T14:05:32;12.30;99.90
38090;DHT22;23904;52.322;10.232;2023-11-19T14:07:58;12.30;99.90
38090;DHT22;23904;52.322;10.232;2023-11-19T14:10:24;12.30;99.90
38090;DHT22;23904;52.322;10.232;2023-11-19T14:12:49;12.20;99.90
38090;DHT22;23904;52.322;10.232;2023-11-19T14:15:15;12.20;99.90
38090;DHT22;23904;52.322;10.232;2023-11-19T14:17:44;12.20;99.90
38090;DHT22;23904;52.322;10.232;2023-11-19T14:20:10;12.20;99.90
38090;DHT22;23904;52.322;10.232;2023-11-19T14:22:42;12.20;99.90
38090;DHT22;23904;52.322;10.232;2023-11-19T14:25:09;12.20;99.90
38090;DHT22;23904;52.322;10.232;2023-11-19T14:27:40;12.20;99.90
38090;DHT22;23904;52.322;10.232;2023-11-19T14:30:10;12.10;99.90
38090;DHT22;23904;52.322;10.232;2023-11-19T14:32:39;12.10;99.90
38090;DHT22;23904;52.322;10.232;2023-11-19T14:35:08;12.10;99.90
38090;DHT22;23904;52.322;10.232;2023-11-19T14:37:34;12.10;99.90
38090;DHT22;23904;52.322;10.232;2023-11-19T14:40:00;12.10;99.90
38090;DHT22;23904;52.322;10.232;2023-11-19T14:42:27;12.10;99.90
38090;DHT22;23904;52.322;10.232;2023-11-19T14:44:53;12.00;99.90
38090;DHT22;23904;52.322;10.232;2023-11-19T14:47:20;11.90;99.90
38090;DHT22;23904;52.322;10.232;2023-11-19T14:49:45;11.90;99.90
38090;DHT22;23904;52.322;10.232;2023-11-19T14:52:11;11.80;99.90
38090;DHT22;23904;52.322;10.232;2023-11-19T14:54:37;11.90;99.90
38090;DHT22;23904;52.322;10.232;2023-11-19T14:57:07;11.90;99.90
38090;DHT22;23904;52.322;10.232;2023-11-19T14:59:36;11.90;99.90
38090;DHT22;23904;52.322;10.232;2023-11-19T15:02:03;11.90;99.90
38090;DHT22;23904;52.322;10.232;2023-11-19T15:04:29;11.80;99.90
38090;DHT22;23904;52.322;10.232;2023-11-19T15:07:00;11.80;99.90
38090;DHT22;23904;52.322;10.232;2023-11-19T15:09:26;11.70;99.90
38090;DHT22;23904;52.322;10.232;2023-11-19T15:11:55;11.70;99.90
38090;DHT22;23904;52.322;10.232;2023-11-19T15:14:20;11.70;99.90
38090;DHT22;23904;52.322;10.232;2023-11-19T15:16:47;11.70;99.90
38090;DHT22;23904;52.322;10.232;2023-11-19T15:19:13;11.70;99.90
38090;DHT22;23904;52.322;10.232;2023-11-19T15:21:42;11.70;99.90
38090;DHT22;23904;52.322;10.232;2023-11-19T15:24:09;11.70;99.90
38090;DHT22;23904;52.322;10.232;2023-11-19T15:26:36;11.60;99.90
38090;DHT22;23904;52.322;10.232;2023-11-19T15:29:03;11.50;99.90
38090;DHT22;23904;52.322;10.232;2023-11-19T15:31:29;11.50;99.90
38090;DHT22;23904;52.322;10.232;2023-11-19T15:33:55;11.50;99.90
38090;DHT22;23904;52.322;10.232;2023-11-19T15:36:21;11.50;99.90
38090;DHT22;23904;52.322;10.232;2023-11-19T15:38:47;11.50;99.90
38090;DHT22;23904;52.322;10.232;2023-11-19T15:41:13;11.50;99.90
38090;DHT22;23904;52.322;10.232;2023-11-19T15:43:39;11.50;99.90
38090;DHT22;23904;52.322;10.232;2023-11-19T15:46:08;11.40;99.90
38090;DHT22;23904;52.322;10.232;2023-11-19T15:48:34;11.40;99.90